Arbutus, Maryland
Current Conditions -  °F | °C
As of 5:11 AM on Wednesday 22 Oct 2014 (Local Time) from KBWI Reporting Station
Light Rain Light Rain  
Wind Chill: 54°   Ceiling: 6000
Heat Index: 54°   Visibility: 8mi
Dew Point: 52°   Wind: 8mph
Humidity: 94%   Direction: 350°N
Pressure: 29.86"   Gusts: NA
Location:  39.2187°N, 76.722°W
Report Text: KBWI 220911Z 35007KT 8SM -RA SCT011 OVC060 12/11 A2986 RMK AO2 P0000
Loading
Personal Weather Stations






























Interactive Weather Map
Tropical Storm Tracking
New forecast layout! Learn more

10-Day Weather Forecast

Advertisements
Track Severe Weather on mobile